< < Back
Terminal Aerodrome Forecast


Current Version              Previous Versions:   1  2  3  4  5  6  7  8  9  

Terminal Aerodrome Forecast

060
FTUS42 KFFC 240500
TAFCSG
TAF
KCSG 240525Z 2406/2506 00000KT P6SM SCT250
     FM241600 33004KT P6SM FEW200=

Latest METAR

714
SAUS70 KWBC 250200
MTRCSG
METAR KCSG 250151Z 00000KT 10SM CLR 14/09 A3004 RMK AO2 SLP169
T01440094


USA.gov is the U.S. government's official web portal to all federal, state and local government web resources and services.